Time;durP1;ratioP1;P1;durP2;ratioP2;P2;SDS_P1;SDS_P2;PMS_P1;PMS_P2;Temp;Humidity;BMP_temperature;BMP_pressure;BME280_temperature;BME280_humidity;BME280_pressure;Samples;Min_cycle;Max_cycle;Signal;HPM_P1;HPM_P2
2023/04/04 00:00:51;;;;;;;1.10;1.10;;;2.60;99.90;;;;;;5010490;28;20771;-46
2023/04/04 00:03:18;;;;;;;1.57;1.47;;;2.60;99.90;;;;;;5001664;28;20201;-46
2023/04/04 00:05:45;;;;;;;2.93;1.47;;;2.60;99.90;;;;;;5011567;28;20200;-47
2023/04/04 00:08:12;;;;;;;2.13;1.77;;;2.60;99.90;;;;;;5008934;28;20271;-46
2023/04/04 00:10:41;;;;;;;2.67;1.97;;;2.60;99.90;;;;;;5011060;28;20281;-46
2023/04/04 00:13:08;;;;;;;1.93;1.50;;;2.50;99.90;;;;;;5004699;28;20202;-46
2023/04/04 00:15:35;;;;;;;2.60;1.67;;;2.60;99.90;;;;;;5010999;28;20256;-47
2023/04/04 00:18:03;;;;;;;3.37;1.73;;;2.60;99.90;;;;;;5006482;28;20291;-46
2023/04/04 00:20:30;;;;;;;3.70;2.20;;;2.50;99.90;;;;;;5010590;28;20306;-47
2023/04/04 00:22:57;;;;;;;2.40;2.30;;;2.40;99.90;;;;;;5009471;28;20779;-46
2023/04/04 00:25:24;;;;;;;3.23;2.60;;;2.40;99.90;;;;;;4998625;28;20206;-47
2023/04/04 00:27:53;;;;;;;2.33;2.20;;;2.40;99.90;;;;;;5002475;28;20209;-46
2023/04/04 00:30:20;;;;;;;2.33;2.10;;;2.40;99.90;;;;;;5002800;28;20645;-47
2023/04/04 00:32:47;;;;;;;3.93;1.60;;;2.40;99.90;;;;;;5010571;28;20196;-46
2023/04/04 00:35:14;;;;;;;2.17;1.80;;;2.40;99.90;;;;;;5009361;28;20255;-46
2023/04/04 00:37:41;;;;;;;3.33;2.67;;;2.40;99.90;;;;;;4996932;28;20861;-45
2023/04/04 00:40:09;;;;;;;2.43;1.67;;;2.40;99.90;;;;;;5009969;28;20418;-46
2023/04/04 00:42:37;;;;;;;1.77;1.60;;;2.40;99.90;;;;;;5012124;28;20686;-47
2023/04/04 00:45:10;;;;;;;3.00;1.70;;;2.30;99.90;;;;;;5010417;28;20196;-46
2023/04/04 00:47:38;;;;;;;1.90;1.80;;;2.20;99.90;;;;;;5010220;28;20252;-46
2023/04/04 00:50:09;;;;;;;2.53;1.60;;;2.20;99.90;;;;;;5004773;28;20665;-46
2023/04/04 00:52:36;;;;;;;1.47;1.47;;;2.20;99.90;;;;;;5014486;28;20724;-46
2023/04/04 00:55:04;;;;;;;2.30;1.53;;;2.20;99.90;;;;;;5009023;28;20209;-46
2023/04/04 00:57:33;;;;;;;2.87;2.63;;;2.10;99.90;;;;;;5005328;28;20207;-46
2023/04/04 01:00:03;;;;;;;2.40;1.47;;;2.10;99.90;;;;;;5014884;28;20699;-47
2023/04/04 01:02:32;;;;;;;2.47;2.17;;;2.00;99.90;;;;;;5013748;28;20316;-46
2023/04/04 01:05:00;;;;;;;2.33;2.13;;;2.00;99.90;;;;;;5015010;28;20204;-46
2023/04/04 01:07:27;;;;;;;4.30;2.47;;;2.10;99.90;;;;;;5012825;28;20199;-46
2023/04/04 01:09:57;;;;;;;1.97;1.73;;;2.10;99.90;;;;;;5012738;28;20225;-47
2023/04/04 01:12:25;;;;;;;3.33;2.23;;;2.00;99.90;;;;;;5012639;28;20201;-45
2023/04/04 01:14:52;;;;;;;6.03;2.20;;;2.10;99.90;;;;;;5014539;28;20266;-46
2023/04/04 01:17:19;;;;;;;3.03;2.03;;;2.00;99.90;;;;;;5013976;28;20260;-46
2023/04/04 01:19:56;;;;;;;2.63;2.37;;;2.00;99.90;;;;;;5010582;28;20286;-46
2023/04/04 01:22:24;;;;;;;1.87;1.73;;;1.90;99.90;;;;;;5003768;28;20227;-46
2023/04/04 01:24:51;;;;;;;2.20;2.10;;;1.90;99.90;;;;;;5007556;28;20197;-46
2023/04/04 01:27:20;;;;;;;2.37;2.13;;;1.80;99.90;;;;;;5006780;28;20209;-46
2023/04/04 01:29:47;;;;;;;2.70;2.50;;;1.80;99.90;;;;;;5005779;28;20227;-47
2023/04/04 01:32:19;;;;;;;1.67;1.57;;;1.80;99.90;;;;;;5013146;28;20249;-46
2023/04/04 01:34:56;;;;;;;1.73;1.63;;;1.80;99.90;;;;;;5050894;22;20290;-45
2023/04/04 01:37:34;;;;;;;2.33;2.10;;;1.80;99.90;;;;;;5025875;28;20238;-45
2023/04/04 01:40:11;;;;;;;3.00;2.77;;;1.80;99.90;;;;;;5032441;28;20212;-44
2023/04/04 01:42:40;;;;;;;3.50;2.10;;;1.80;99.90;;;;;;5032812;28;20219;-44
2023/04/04 01:45:11;;;;;;;3.60;1.63;;;1.80;99.90;;;;;;5053747;28;20222;-46
2023/04/04 01:47:39;;;;;;;3.90;3.60;;;1.80;99.90;;;;;;5051040;28;20208;-45
2023/04/04 01:50:10;;;;;;;2.30;2.10;;;1.70;99.90;;;;;;5053557;28;20195;-45
2023/04/04 01:52:37;;;;;;;5.23;1.90;;;1.70;99.90;;;;;;5050305;28;20288;-44
2023/04/04 01:55:04;;;;;;;2.00;1.70;;;1.70;99.90;;;;;;5052851;28;20209;-45
2023/04/04 01:57:31;;;;;;;2.03;1.87;;;1.80;99.90;;;;;;5042736;28;20207;-45
2023/04/04 02:00:00;;;;;;;1.53;1.47;;;1.80;99.90;;;;;;5038175;28;20261;-44
2023/04/04 02:02:27;;;;;;;2.30;2.10;;;1.80;99.90;;;;;;5053230;28;20242;-45
2023/04/04 02:04:54;;;;;;;3.67;2.00;;;1.80;99.90;;;;;;5050936;28;20230;-45
2023/04/04 02:07:22;;;;;;;2.40;2.20;;;1.70;99.90;;;;;;5052645;28;20204;-45
2023/04/04 02:09:48;;;;;;;2.47;2.27;;;1.60;99.90;;;;;;5047887;28;20289;-44
2023/04/04 02:12:15;;;;;;;2.17;1.73;;;1.60;99.90;;;;;;5050598;28;20205;-46
2023/04/04 02:14:42;;;;;;;2.73;1.53;;;1.50;99.90;;;;;;5049042;28;20641;-45
2023/04/04 02:17:11;;;;;;;2.73;2.53;;;1.50;99.90;;;;;;5050326;28;20252;-44
2023/04/04 02:19:38;;;;;;;1.83;1.43;;;1.50;99.90;;;;;;5052167;28;20677;-45
2023/04/04 02:22:05;;;;;;;4.17;3.70;;;1.50;99.90;;;;;;5046336;28;20265;-45
2023/04/04 02:24:31;;;;;;;2.80;2.53;;;1.40;99.90;;;;;;5050992;28;20279;-44
2023/04/04 02:26:58;;;;;;;7.13;2.53;;;1.50;99.90;;;;;;5049065;28;20571;-44
2023/04/04 02:29:25;;;;;;;1.90;1.80;;;1.60;99.90;;;;;;5052772;28;20203;-45
2023/04/04 02:31:52;;;;;;;2.90;2.53;;;1.50;99.90;;;;;;5052881;28;20273;-45
2023/04/04 02:34:21;;;;;;;2.97;1.80;;;1.40;99.90;;;;;;5050122;28;20724;-44
2023/04/04 02:36:47;;;;;;;2.60;2.00;;;1.40;99.90;;;;;;5047365;28;20658;-45
2023/04/04 02:39:14;;;;;;;2.50;2.30;;;1.40;99.90;;;;;;5049794;28;20203;-45
2023/04/04 02:41:41;;;;;;;5.17;2.93;;;1.50;99.90;;;;;;5052546;28;20212;-44
2023/04/04 02:44:09;;;;;;;2.73;2.13;;;1.40;99.90;;;;;;5051206;28;20268;-45
2023/04/04 02:46:35;;;;;;;3.57;2.10;;;1.40;99.90;;;;;;5050790;28;20208;-44
2023/04/04 02:49:03;;;;;;;2.10;2.00;;;1.40;99.90;;;;;;5050125;28;20264;-45
2023/04/04 02:51:32;;;;;;;2.50;2.30;;;1.40;99.90;;;;;;5049845;28;20303;-45
2023/04/04 02:53:59;;;;;;;2.67;2.37;;;1.30;99.90;;;;;;5052120;28;20238;-44
2023/04/04 02:56:26;;;;;;;6.13;2.30;;;1.30;99.90;;;;;;5049536;28;20766;-45
2023/04/04 02:58:53;;;;;;;2.13;2.03;;;1.20;99.90;;;;;;5051706;28;20220;-45
2023/04/04 03:01:20;;;;;;;3.87;2.77;;;1.20;99.90;;;;;;5048105;28;20202;-45
2023/04/04 03:03:47;;;;;;;3.97;2.33;;;1.00;99.90;;;;;;5050878;28;20277;-45
2023/04/04 03:06:14;;;;;;;2.20;2.10;;;1.10;99.90;;;;;;5050583;28;20595;-45
2023/04/04 03:08:43;;;;;;;6.47;2.47;;;1.10;99.90;;;;;;5048845;28;20293;-45
2023/04/04 03:11:09;;;;;;;4.23;2.57;;;1.00;99.90;;;;;;5052102;28;20202;-45
2023/04/04 03:13:36;;;;;;;3.13;2.63;;;1.00;99.90;;;;;;5048365;28;20221;-45
2023/04/04 03:16:06;;;;;;;2.27;2.17;;;0.90;99.90;;;;;;5048315;28;20203;-45
2023/04/04 03:18:33;;;;;;;2.27;1.90;;;0.90;99.90;;;;;;5045812;28;20209;-44
2023/04/04 03:21:00;;;;;;;2.27;2.10;;;0.90;99.90;;;;;;5049288;28;20206;-45
2023/04/04 03:23:27;;;;;;;3.00;2.47;;;0.90;99.90;;;;;;5052197;28;20237;-45
2023/04/04 03:25:55;;;;;;;4.70;2.40;;;0.80;99.90;;;;;;5048154;28;20301;-45
2023/04/04 03:28:22;;;;;;;4.83;2.77;;;0.80;99.90;;;;;;5051100;28;20254;-44
2023/04/04 03:30:50;;;;;;;4.23;2.83;;;0.80;99.90;;;;;;5063339;28;20200;-45
2023/04/04 03:33:18;;;;;;;2.73;2.50;;;0.80;99.90;;;;;;5053301;28;20262;-45
2023/04/04 03:35:45;;;;;;;5.20;2.93;;;0.90;99.90;;;;;;5050081;28;20202;-45
2023/04/04 03:38:12;;;;;;;3.23;2.77;;;0.90;99.90;;;;;;5051462;28;20266;-45
2023/04/04 03:40:40;;;;;;;3.83;2.50;;;0.90;99.90;;;;;;5044760;28;20677;-45
2023/04/04 03:43:09;;;;;;;2.53;2.30;;;0.80;99.90;;;;;;5047719;28;20350;-44
2023/04/04 03:45:36;;;;;;;3.70;3.17;;;0.90;99.90;;;;;;5051767;28;20244;-44
2023/04/04 03:48:02;;;;;;;3.60;2.67;;;0.80;99.90;;;;;;5049095;28;20195;-45
2023/04/04 03:50:30;;;;;;;2.60;2.40;;;0.80;99.90;;;;;;5049426;28;20272;-44
2023/04/04 03:52:58;;;;;;;2.63;2.47;;;0.90;99.90;;;;;;5049115;28;20218;-45
2023/04/04 03:55:26;;;;;;;4.50;3.47;;;0.80;99.90;;;;;;5049401;28;20623;-45
2023/04/04 03:57:53;;;;;;;2.93;2.60;;;0.80;99.90;;;;;;5049549;28;20200;-45
2023/04/04 04:00:21;;;;;;;3.97;3.10;;;0.70;99.90;;;;;;5048016;28;20207;-45
2023/04/04 04:02:48;;;;;;;2.90;2.70;;;0.70;99.90;;;;;;5042273;28;20219;-45
2023/04/04 04:05:15;;;;;;;2.60;2.50;;;0.70;99.90;;;;;;5040550;28;20222;-45
2023/04/04 04:07:44;;;;;;;4.27;3.13;;;0.60;99.90;;;;;;5041683;28;20204;-44
2023/04/04 04:10:12;;;;;;;2.43;2.23;;;0.50;99.90;;;;;;5040186;28;20221;-45
2023/04/04 04:12:40;;;;;;;2.70;2.43;;;0.50;99.90;;;;;;5049358;28;20203;-45
2023/04/04 04:15:11;;;;;;;4.30;3.23;;;0.60;99.90;;;;;;5039888;28;20195;-46
2023/04/04 04:17:40;;;;;;;4.40;3.50;;;0.50;99.90;;;;;;5051842;28;20205;-45
2023/04/04 04:20:11;;;;;;;5.03;3.10;;;0.50;99.90;;;;;;5048503;28;20193;-45
2023/04/04 04:22:38;;;;;;;6.60;2.97;;;0.40;99.90;;;;;;5049611;28;20296;-45
2023/04/04 04:25:08;;;;;;;4.77;2.83;;;0.30;99.90;;;;;;5056494;28;20202;-45
2023/04/04 04:27:36;;;;;;;4.70;3.97;;;0.30;99.90;;;;;;5057195;28;20238;-45
2023/04/04 04:30:03;;;;;;;5.57;3.70;;;0.30;99.90;;;;;;5052053;28;20203;-45
2023/04/04 04:32:30;;;;;;;4.50;3.23;;;0.30;99.90;;;;;;5056058;28;20211;-45
2023/04/04 04:34:58;;;;;;;5.83;3.40;;;0.30;99.90;;;;;;5057191;28;20236;-46
2023/04/04 04:37:26;;;;;;;4.30;3.27;;;0.30;99.90;;;;;;5054830;28;20635;-46
2023/04/04 04:39:53;;;;;;;2.87;2.67;;;0.20;99.90;;;;;;5067669;28;20199;-46
2023/04/04 04:42:20;;;;;;;6.27;5.73;;;0.40;99.90;;;;;;5074262;28;20188;-46
2023/04/04 04:44:47;;;;;;;8.87;3.53;;;0.40;99.90;;;;;;5055432;28;20225;-45
2023/04/04 04:47:14;;;;;;;6.57;3.73;;;0.30;99.90;;;;;;5046805;28;20276;-46
2023/04/04 04:49:41;;;;;;;3.87;3.57;;;0.30;99.90;;;;;;5038396;28;20644;-46
2023/04/04 04:52:09;;;;;;;3.27;3.07;;;0.30;99.90;;;;;;5044764;28;20272;-46
2023/04/04 04:54:36;;;;;;;4.07;3.43;;;0.30;99.90;;;;;;5042996;28;20272;-46
2023/04/04 04:57:03;;;;;;;4.13;3.77;;;0.30;99.90;;;;;;5035889;28;20200;-45
2023/04/04 04:59:30;;;;;;;7.83;4.70;;;0.30;99.90;;;;;;5043983;28;20257;-46
2023/04/04 05:01:57;;;;;;;8.47;5.83;;;0.40;99.90;;;;;;5040204;28;20204;-45
2023/04/04 05:04:24;;;;;;;10.47;5.63;;;0.40;99.90;;;;;;5049143;28;20630;-45
2023/04/04 05:06:52;;;;;;;9.20;6.17;;;0.30;99.90;;;;;;5034276;28;20199;-46
2023/04/04 05:09:20;;;;;;;8.80;5.80;;;0.30;99.90;;;;;;5047515;28;20586;-45
2023/04/04 05:11:47;;;;;;;9.37;6.50;;;0.40;99.90;;;;;;5042195;28;20252;-46
2023/04/04 05:14:14;;;;;;;8.43;6.00;;;0.40;99.90;;;;;;5038694;28;20215;-46
2023/04/04 05:16:41;;;;;;;10.67;5.63;;;0.40;99.90;;;;;;5049892;28;20203;-45
2023/04/04 05:19:08;;;;;;;5.53;4.63;;;0.40;99.90;;;;;;5034315;28;20681;-46
2023/04/04 05:21:35;;;;;;;8.40;5.40;;;0.30;99.90;;;;;;5047614;28;20219;-45
2023/04/04 05:24:02;;;;;;;10.37;4.80;;;0.30;99.90;;;;;;5045841;28;20277;-46
2023/04/04 05:26:31;;;;;;;8.43;5.10;;;0.50;99.90;;;;;;5038293;28;20292;-45
2023/04/04 05:28:58;;;;;;;7.50;4.80;;;0.50;99.90;;;;;;5037604;28;20200;-45
2023/04/04 05:31:26;;;;;;;6.90;4.70;;;0.50;99.90;;;;;;5043000;28;20235;-46
2023/04/04 05:33:53;;;;;;;5.40;4.27;;;0.50;99.90;;;;;;5049392;28;20229;-46
2023/04/04 05:36:20;;;;;;;7.13;5.10;;;0.60;99.90;;;;;;5054112;28;20213;-45
2023/04/04 05:38:47;;;;;;;5.13;3.97;;;0.70;99.90;;;;;;5047096;28;20699;-45
2023/04/04 05:41:14;;;;;;;6.43;4.23;;;0.80;99.90;;;;;;5050433;28;20725;-45
2023/04/04 05:43:43;;;;;;;4.83;4.43;;;0.90;99.90;;;;;;5050530;28;20230;-46
2023/04/04 05:46:10;;;;;;;5.57;5.00;;;1.00;99.90;;;;;;5052366;28;20254;-45
2023/04/04 05:48:37;;;;;;;5.87;3.83;;;1.10;99.90;;;;;;5051734;28;20205;-47
2023/04/04 05:51:04;;;;;;;3.77;3.47;;;1.20;99.90;;;;;;5050599;28;20673;-45
2023/04/04 05:53:31;;;;;;;4.03;3.63;;;1.60;99.90;;;;;;5051239;28;20279;-45
2023/04/04 05:55:58;;;;;;;5.47;4.93;;;2.80;99.90;;;;;;5050536;28;20200;-45
2023/04/04 05:58:25;;;;;;;7.00;3.87;;;4.10;99.90;;;;;;5053366;28;20520;-45
2023/04/04 06:00:53;;;;;;;5.70;5.23;;;5.60;99.90;;;;;;5050556;28;20592;-46
2023/04/04 06:03:20;;;;;;;4.37;3.70;;;6.60;99.90;;;;;;5048299;28;20230;-46
2023/04/04 06:05:51;;;;;;;3.50;3.30;;;7.50;99.90;;;;;;5052691;28;20587;-45
2023/04/04 06:08:18;;;;;;;5.60;5.17;;;8.10;99.90;;;;;;5050738;28;20664;-45
2023/04/04 06:10:45;;;;;;;4.77;4.47;;;8.60;99.90;;;;;;5052250;28;20253;-45
2023/04/04 06:13:12;;;;;;;4.77;4.43;;;8.70;99.90;;;;;;5047701;28;20232;-46
2023/04/04 06:15:39;;;;;;;4.70;4.40;;;9.40;99.90;;;;;;5052544;28;20205;-45
2023/04/04 06:18:07;;;;;;;5.47;4.50;;;9.40;99.90;;;;;;5051030;28;20201;-46
2023/04/04 06:20:34;;;;;;;4.30;3.77;;;10.20;98.90;;;;;;5050937;28;20210;-45
2023/04/04 06:23:03;;;;;;;3.70;3.17;;;9.90;98.20;;;;;;5045930;28;20231;-46
2023/04/04 06:25:31;;;;;;;4.47;4.00;;;10.50;98.10;;;;;;5043651;28;20203;-46
2023/04/04 06:27:58;;;;;;;4.87;4.43;;;10.90;97.30;;;;;;5050172;28;20211;-47
2023/04/04 06:30:25;;;;;;;4.07;3.77;;;11.40;95.80;;;;;;5042110;28;20203;-46
2023/04/04 06:32:53;;;;;;;3.60;3.30;;;11.50;94.50;;;;;;5041580;28;20200;-47
2023/04/04 06:35:21;;;;;;;4.60;4.23;;;11.00;94.90;;;;;;5046047;28;20611;-46
2023/04/04 06:37:54;;;;;;;4.00;3.70;;;11.50;96.00;;;;;;5048377;28;20254;-46
2023/04/04 06:40:21;;;;;;;3.63;3.33;;;12.00;94.50;;;;;;5037017;28;20301;-47
2023/04/04 06:42:49;;;;;;;5.07;2.90;;;12.70;93.50;;;;;;5046204;28;20198;-47
2023/04/04 06:45:17;;;;;;;3.80;3.60;;;12.60;92.10;;;;;;5050964;28;20195;-48
2023/04/04 06:47:45;;;;;;;3.50;3.30;;;12.90;91.80;;;;;;5046980;28;20753;-46
2023/04/04 06:50:13;;;;;;;4.27;3.40;;;12.80;91.70;;;;;;5051378;28;20202;-46
2023/04/04 06:52:41;;;;;;;3.50;3.27;;;12.50;90.80;;;;;;5037328;28;20259;-45
2023/04/04 06:55:12;;;;;;;3.43;3.23;;;11.70;91.50;;;;;;5049851;28;20198;-48
2023/04/04 06:57:39;;;;;;;4.57;4.13;;;11.10;91.90;;;;;;5041207;28;20692;-48
2023/04/04 07:00:10;;;;;;;3.23;3.03;;;12.10;92.10;;;;;;5049970;28;20659;-47
2023/04/04 07:02:37;;;;;;;4.10;3.77;;;12.90;90.70;;;;;;5049980;28;20283;-47
2023/04/04 07:05:04;;;;;;;4.63;4.33;;;13.30;89.80;;;;;;5048200;28;20230;-47
2023/04/04 07:07:31;;;;;;;3.00;2.63;;;13.70;88.70;;;;;;5046736;28;20208;-50
2023/04/04 07:10:00;;;;;;;3.17;2.70;;;13.30;88.30;;;;;;5050809;28;20199;-47
2023/04/04 07:12:27;;;;;;;5.93;3.00;;;13.30;89.00;;;;;;5043123;28;20205;-47
2023/04/04 07:14:54;;;;;;;3.07;2.77;;;12.90;89.50;;;;;;5049126;28;20218;-47
2023/04/04 07:17:21;;;;;;;4.57;3.67;;;13.70;86.60;;;;;;5044787;28;20266;-47
2023/04/04 07:19:48;;;;;;;3.43;3.23;;;13.90;86.80;;;;;;5044247;28;20227;-47
2023/04/04 07:22:15;;;;;;;3.37;3.07;;;14.20;87.80;;;;;;5047516;28;20223;-47
2023/04/04 07:24:42;;;;;;;3.50;3.20;;;14.20;86.90;;;;;;5039303;28;20233;-46
2023/04/04 07:27:14;;;;;;;3.93;3.73;;;13.70;86.60;;;;;;5039476;28;20267;-46
2023/04/04 07:29:41;;;;;;;3.33;3.13;;;13.10;86.70;;;;;;5047094;28;20226;-48
2023/04/04 07:32:08;;;;;;;3.00;2.80;;;13.60;88.20;;;;;;5041032;28;20205;-47
2023/04/04 07:34:35;;;;;;;3.40;3.20;;;13.20;87.20;;;;;;5065911;23;20296;-46
2023/04/04 07:37:02;;;;;;;3.27;3.07;;;12.90;86.40;;;;;;5048726;28;20619;-47
2023/04/04 07:39:30;;;;;;;3.47;3.27;;;13.20;88.40;;;;;;5050529;28;20227;-47
2023/04/04 07:41:57;;;;;;;3.43;3.23;;;12.30;86.70;;;;;;5047620;28;20202;-47
2023/04/04 07:44:25;;;;;;;3.90;3.03;;;11.80;86.30;;;;;;5055840;28;20217;-46
2023/04/04 07:46:52;;;;;;;4.07;3.77;;;12.20;88.90;;;;;;5060935;28;20197;-46
2023/04/04 07:49:19;;;;;;;3.63;3.20;;;11.80;90.30;;;;;;5067209;28;20571;-46
2023/04/04 07:51:47;;;;;;;3.07;2.93;;;11.60;90.10;;;;;;5053574;28;20293;-48
2023/04/04 07:54:14;;;;;;;2.80;2.60;;;11.40;89.40;;;;;;5069649;28;20234;-46
2023/04/04 07:56:41;;;;;;;4.00;3.67;;;11.50;90.80;;;;;;5064126;28;20756;-46
2023/04/04 07:59:08;;;;;;;2.73;2.27;;;11.80;89.30;;;;;;5065775;28;20199;-47
2023/04/04 08:01:37;;;;;;;3.07;2.87;;;12.20;88.50;;;;;;5064837;28;20447;-46
2023/04/04 08:04:04;;;;;;;6.57;2.93;;;12.70;89.60;;;;;;5057732;28;20649;-47
2023/04/04 08:06:32;;;;;;;3.90;3.67;;;12.20;89.70;;;;;;5066994;28;20240;-46
2023/04/04 08:08:59;;;;;;;5.17;2.77;;;12.60;89.30;;;;;;5055675;28;20696;-47
2023/04/04 08:11:26;;;;;;;2.93;2.77;;;13.30;90.10;;;;;;5068694;28;20203;-46
2023/04/04 08:13:53;;;;;;;4.17;3.27;;;13.50;89.90;;;;;;5070423;28;20255;-46
2023/04/04 08:16:21;;;;;;;2.80;2.70;;;12.10;89.90;;;;;;5066323;28;20204;-46
2023/04/04 08:18:49;;;;;;;5.53;3.00;;;12.80;88.10;;;;;;5064035;28;20206;-47
2023/04/04 08:21:16;;;;;;;3.20;2.90;;;13.00;90.10;;;;;;5058290;28;20215;-46
2023/04/04 08:23:43;;;;;;;3.43;2.90;;;13.50;90.20;;;;;;5063689;28;20222;-48
2023/04/04 08:26:10;;;;;;;2.83;2.63;;;14.20;88.20;;;;;;5065293;28;20885;-47
2023/04/04 08:28:37;;;;;;;3.27;3.00;;;13.90;87.30;;;;;;5067515;28;20214;-47
2023/04/04 08:31:04;;;;;;;3.07;2.80;;;13.60;89.60;;;;;;5068707;28;20205;-47
2023/04/04 08:33:31;;;;;;;3.27;2.90;;;13.80;87.50;;;;;;5065507;28;20213;-46
2023/04/04 08:36:00;;;;;;;2.93;2.83;;;14.00;88.40;;;;;;5060103;28;20713;-47
2023/04/04 08:38:27;;;;;;;4.30;2.70;;;14.10;82.70;;;;;;5068282;28;20742;-47
2023/04/04 08:40:54;;;;;;;2.77;2.67;;;13.90;80.50;;;;;;5068791;28;20216;-46
2023/04/04 08:43:23;;;;;;;4.30;2.47;;;14.40;83.00;;;;;;5067807;28;20207;-47
2023/04/04 08:45:53;;;;;;;3.07;2.67;;;14.30;84.00;;;;;;5068931;28;20269;-47
2023/04/04 08:48:21;;;;;;;2.47;2.27;;;14.10;84.80;;;;;;5063410;28;20226;-47
2023/04/04 08:50:50;;;;;;;2.87;2.67;;;14.00;83.30;;;;;;5058606;28;20204;-48
2023/04/04 08:53:19;;;;;;;3.53;3.07;;;14.40;85.50;;;;;;5068810;28;20201;-47
2023/04/04 08:55:46;;;;;;;4.33;3.93;;;14.40;83.40;;;;;;5066814;28;20603;-47
2023/04/04 08:58:16;;;;;;;2.33;2.23;;;14.00;81.20;;;;;;5063773;28;20261;-46
2023/04/04 09:00:42;;;;;;;2.37;2.27;;;14.20;80.60;;;;;;5074741;28;20229;-47
2023/04/04 09:03:18;;;;;;;2.33;2.07;;;13.00;82.70;;;;;;5069835;28;20257;-47
2023/04/04 09:05:45;;;;;;;3.63;3.10;;;12.90;84.70;;;;;;5070705;28;20270;-46
2023/04/04 09:08:14;;;;;;;5.07;3.33;;;13.30;84.90;;;;;;5068407;28;20203;-48
2023/04/04 09:10:44;;;;;;;3.17;3.00;;;14.20;83.00;;;;;;5069312;28;20288;-47
2023/04/04 09:13:11;;;;;;;2.40;2.30;;;14.80;85.30;;;;;;5069410;28;20632;-47
2023/04/04 09:15:40;;;;;;;2.20;2.10;;;14.90;80.40;;;;;;5069105;28;20803;-47
2023/04/04 09:18:08;;;;;;;2.53;2.43;;;15.40;75.90;;;;;;5072956;28;20208;-47
2023/04/04 09:20:39;;;;;;;2.70;2.47;;;15.20;74.20;;;;;;5069547;28;20617;-47
2023/04/04 09:23:08;;;;;;;2.60;2.40;;;15.60;74.00;;;;;;5067435;28;20644;-47
2023/04/04 09:25:36;;;;;;;3.50;3.23;;;15.50;77.80;;;;;;5068622;28;20307;-47
2023/04/04 09:28:05;;;;;;;3.63;2.57;;;14.50;79.40;;;;;;5068764;28;20753;-48
2023/04/04 09:30:34;;;;;;;2.57;2.37;;;14.40;81.30;;;;;;5064713;28;20213;-47
2023/04/04 09:33:03;;;;;;;2.70;2.50;;;14.30;81.90;;;;;;5073426;28;20207;-47
2023/04/04 09:35:34;;;;;;;3.43;2.53;;;13.50;82.30;;;;;;5071341;28;20219;-47
2023/04/04 09:38:01;;;;;;;3.07;2.87;;;13.30;83.20;;;;;;5069810;28;20193;-47
2023/04/04 09:40:29;;;;;;;2.70;2.60;;;13.60;82.80;;;;;;5066675;28;20211;-48
2023/04/04 09:43:00;;;;;;;2.23;2.13;;;13.30;79.40;;;;;;5070759;28;20204;-47
2023/04/04 09:45:30;;;;;;;2.80;2.20;;;13.40;85.00;;;;;;5072082;28;20822;-47
2023/04/04 09:47:57;;;;;;;2.90;2.70;;;13.50;82.90;;;;;;5070278;28;20207;-47
2023/04/04 09:50:27;;;;;;;2.33;2.23;;;14.00;85.10;;;;;;5065952;28;20199;-46
2023/04/04 09:52:57;;;;;;;4.27;2.70;;;12.60;86.50;;;;;;5072097;28;20231;-47
2023/04/04 09:55:33;;;;;;;2.87;2.67;;;13.30;90.40;;;;;;5069964;28;20336;-47
2023/04/04 09:58:01;;;;;;;5.03;2.73;;;13.50;85.00;;;;;;5072210;28;20298;-48
2023/04/04 10:00:32;;;;;;;4.07;2.70;;;13.20;82.70;;;;;;5071126;28;20203;-47
2023/04/04 10:03:21;;;;;;;2.60;2.47;;;13.60;88.80;;;;;;5072936;28;20294;-47
2023/04/04 10:05:54;;;;;;;3.70;2.43;;;13.80;87.60;;;;;;5068000;28;20746;-47
2023/04/04 10:08:22;;;;;;;2.63;2.43;;;13.60;84.70;;;;;;5063584;28;20640;-46
2023/04/04 10:10:50;;;;;;;2.23;1.80;;;13.60;85.70;;;;;;5070465;28;20249;-46
2023/04/04 10:13:24;;;;;;;2.13;2.10;;;13.90;86.30;;;;;;5071781;28;20256;-48
2023/04/04 10:15:54;;;;;;;3.10;2.57;;;14.50;83.50;;;;;;5070544;28;20253;-46
2023/04/04 10:18:24;;;;;;;3.58;3.28;;;14.60;82.30;;;;;;5064414;28;21036;-46
2023/04/04 10:20:52;;;;;;;3.17;2.60;;;14.60;85.50;;;;;;5070963;28;20303;-47
2023/04/04 10:23:22;;;;;;;4.40;2.47;;;13.80;86.20;;;;;;5068986;28;20707;-46
2023/04/04 10:25:49;;;;;;;3.23;3.00;;;13.70;84.30;;;;;;5069611;28;20221;-46
2023/04/04 10:28:17;;;;;;;3.30;2.30;;;13.80;86.10;;;;;;5067927;28;20623;-47
2023/04/04 10:30:50;;;;;;;2.13;1.97;;;13.80;85.40;;;;;;5054289;28;20289;-47
2023/04/04 10:33:27;;;;;;;3.07;2.27;;;14.10;87.80;;;;;;5058734;28;20211;-46
2023/04/04 10:35:58;;;;;;;4.63;2.33;;;14.30;80.10;;;;;;5057140;28;20221;-47
2023/04/04 10:38:31;;;;;;;2.80;2.63;;;13.50;79.00;;;;;;5065587;28;20710;-46
2023/04/04 10:41:00;;;;;;;2.87;2.20;;;13.30;83.50;;;;;;5066405;28;20672;-48
2023/04/04 10:43:32;;;;;;;2.20;2.07;;;13.30;86.70;;;;;;5069813;28;20602;-48
2023/04/04 10:46:06;;;;;;;2.33;2.13;;;13.00;86.30;;;;;;5066122;28;20228;-47
2023/04/04 10:48:35;;;;;;;2.10;1.92;;;12.80;84.30;;;;;;5051567;28;20443;-47
2023/04/04 10:51:03;;;;;;;2.67;1.73;;;12.90;86.80;;;;;;5052855;28;20750;-47
2023/04/04 10:53:30;;;;;;;2.60;2.00;;;12.90;87.00;;;;;;5060172;28;20320;-46
2023/04/04 10:55:59;;;;;;;1.70;1.60;;;12.50;87.40;;;;;;5061577;28;20231;-47
2023/04/04 10:58:28;;;;;;;2.00;1.90;;;12.30;84.20;;;;;;5067784;28;20735;-47
2023/04/04 11:00:56;;;;;;;1.90;1.80;;;11.80;87.20;;;;;;5071404;28;20201;-47
2023/04/04 11:03:24;;;;;;;2.57;1.90;;;11.60;88.00;;;;;;5069823;28;20203;-47
2023/04/04 11:36:03;;;;;;;1.93;1.30;;;9.60;90.30;;;;;;5141781;22;20223;-46
2023/04/04 11:38:32;;;;;;;1.30;1.30;;;9.90;88.00;;;;;;5001317;28;20204;-47
2023/04/04 11:40:59;;;;;;;1.40;1.30;;;10.10;90.30;;;;;;5003541;28;20239;-47
2023/04/04 11:43:28;;;;;;;1.37;1.27;;;10.50;85.70;;;;;;4999796;28;20197;-46
2023/04/04 11:46:07;;;;;;;1.50;1.27;;;10.00;82.60;;;;;;4977369;28;20261;-47
2023/04/04 11:48:34;;;;;;;1.33;1.23;;;9.60;85.20;;;;;;4984234;28;20203;-48
2023/04/04 11:51:03;;;;;;;1.60;1.50;;;9.30;87.00;;;;;;4984909;28;20272;-47
2023/04/04 14:42:47;;;;;;;2.60;2.30;;;8.10;87.30;;;;;;5047913;28;20268;-45
2023/04/04 14:45:17;;;;;;;4.47;1.90;;;8.00;86.30;;;;;;5051955;28;20250;-47
2023/04/04 14:47:43;;;;;;;2.10;2.00;;;8.00;84.80;;;;;;5052249;28;20228;-47
2023/04/04 14:50:10;;;;;;;3.33;2.33;;;8.10;85.10;;;;;;5040689;28;20638;-46
2023/04/04 14:52:37;;;;;;;4.07;2.47;;;8.30;86.10;;;;;;5048360;28;20218;-45
2023/04/04 14:55:06;;;;;;;2.97;2.77;;;8.40;86.10;;;;;;5051337;28;20204;-46
2023/04/04 14:57:33;;;;;;;3.00;2.57;;;8.50;88.50;;;;;;5052092;28;20646;-45
2023/04/04 15:00:01;;;;;;;2.77;2.33;;;8.70;88.00;;;;;;5043555;28;20206;-47
2023/04/04 15:02:29;;;;;;;2.17;2.07;;;8.80;88.10;;;;;;5047144;28;20213;-46
2023/04/04 15:04:56;;;;;;;2.83;2.63;;;8.90;86.20;;;;;;5051888;28;20246;-45
2023/04/04 15:07:23;;;;;;;2.70;2.43;;;8.70;86.10;;;;;;5029115;28;20217;-46
2023/04/04 15:09:50;;;;;;;4.40;2.07;;;8.70;85.30;;;;;;5019485;28;20204;-47
2023/04/04 15:12:17;;;;;;;3.00;2.37;;;8.80;85.00;;;;;;5013776;28;20221;-46
2023/04/04 15:14:44;;;;;;;4.43;3.20;;;8.90;84.20;;;;;;5011418;28;20251;-45
2023/04/04 15:17:12;;;;;;;2.30;2.10;;;8.70;85.30;;;;;;5011591;28;20193;-47
2023/04/04 15:19:40;;;;;;;4.43;2.40;;;8.60;85.00;;;;;;5030081;28;20247;-47
2023/04/04 15:22:07;;;;;;;3.07;2.90;;;8.50;86.80;;;;;;5029239;28;20221;-45
2023/04/04 15:24:34;;;;;;;3.17;3.07;;;8.50;86.40;;;;;;5020954;28;20200;-47
2023/04/04 15:27:01;;;;;;;2.30;2.20;;;8.50;85.90;;;;;;5016676;28;20200;-47
2023/04/04 15:29:28;;;;;;;7.03;2.70;;;8.50;85.20;;;;;;5011206;28;20267;-46
2023/04/04 15:31:55;;;;;;;5.30;2.53;;;8.60;84.50;;;;;;5021588;28;20281;-46
2023/04/04 15:34:24;;;;;;;2.00;1.90;;;8.70;84.50;;;;;;5020235;28;20640;-47
2023/04/04 15:36:51;;;;;;;2.47;2.27;;;8.50;85.90;;;;;;5013903;28;20275;-46
2023/04/04 15:39:18;;;;;;;3.43;2.50;;;8.50;84.90;;;;;;5010969;28;20716;-46
2023/04/04 15:41:45;;;;;;;5.53;3.57;;;8.40;84.10;;;;;;5021263;28;20713;-45
2023/04/04 15:44:12;;;;;;;3.03;2.83;;;8.30;85.20;;;;;;5023954;28;20248;-45
2023/04/04 15:46:39;;;;;;;3.33;2.67;;;8.40;85.00;;;;;;5010665;28;20220;-45
2023/04/04 15:49:06;;;;;;;4.27;3.87;;;8.40;85.50;;;;;;5014857;28;20201;-46
2023/04/04 15:51:36;;;;;;;2.60;2.40;;;8.50;85.70;;;;;;5016346;28;20307;-46
2023/04/04 15:54:03;;;;;;;2.77;2.57;;;8.60;85.00;;;;;;5021423;28;20253;-44
2023/04/04 15:56:30;;;;;;;5.40;2.70;;;8.70;85.40;;;;;;5010664;28;20271;-45
2023/04/04 15:58:58;;;;;;;3.07;2.87;;;8.70;85.40;;;;;;5010809;28;20198;-46
2023/04/04 16:01:26;;;;;;;3.87;2.60;;;8.80;84.90;;;;;;5016928;28;20652;-45
2023/04/04 16:03:53;;;;;;;4.23;3.03;;;8.80;86.30;;;;;;5013615;28;20197;-46
2023/04/04 16:06:20;;;;;;;2.40;2.20;;;8.80;84.60;;;;;;5019293;28;20222;-45
2023/04/04 16:08:48;;;;;;;2.77;2.60;;;8.70;87.10;;;;;;5033291;28;20732;-46
2023/04/04 16:11:15;;;;;;;3.30;3.10;;;8.50;88.30;;;;;;5023935;28;20300;-46
2023/04/04 16:13:42;;;;;;;2.60;2.50;;;8.30;88.20;;;;;;5028621;28;20201;-46
2023/04/04 16:16:09;;;;;;;5.20;2.87;;;8.30;88.30;;;;;;5030350;28;20200;-46